Jones - western half: Past 24 Hour Conditions

 

Cape Dorset Airport

03:00 PM EDT 23 April 2014
This table is a summary of hourly weather conditions for the past 24 hours.
Date / Time
(EDT)
Wind(knots) Conditions Visibility(km) Pressure(kPa) Air tempC) Relative humidity(%) Dew pointC) Wind Chill
23 April 2014
15:00 W 2 Mainly Sunny 24 102.4 -11 77 -14 -13
14:00 WNW 3 Light Snow 24 102.4 -11 78 -14 -14
13:00 NW 3 Light Snow 24 102.4 -12 80 -14 -15
12:00 NNE 3 Light Snow 24 102.4 -12 78 -15 -15
11:00 WNW 3 Partly Cloudy 24 102.4 -13 79 -16 -17
10:00 calm Partly Cloudy 24 102.4 -14 82 -17 *
9:00 NW 3 Mostly Cloudy 24 102.4 -15 81 -18 -19
8:00 W 2 Mostly Cloudy 24 102.3 -16 83 -18 -18
7:00 WSW 5 Sunny 16 102.3 -16 84 -19 -23
6:00 WSW 3 Sunny 16 102.2 -16 84 -18 -20
5:00 WSW 3 Clear 16 102.2 -16 82 -18 -19
4:00 WNW 3 Clear 16 102.2 -16 84 -18 -19
3:00 WNW 2 Partly Cloudy 16 102.1 -15 84 -17 -17
2:00 calm Mainly Clear 16 102.1 -14 85 -16 *
1:00 NNE 4 Clear 16 102.1 -14 82 -16 -19
0:00 N 5 Clear 16 102.1 -14 82 -16 -20
22 April 2014
23:00 N 5 Clear 16 102.0 -14 80 -16 -19
22:00 calm Clear 16 102.0 -14 81 -16 *
21:00 N 2 Sunny 16 102.0 -13 80 -16 -15
20:00 N 5 Sunny 16 102.0 -12 76 -15 -17
19:00 N 5 Mainly Sunny 16 102.0 -11 74 -15 -16
18:00 N 9 Light Snow 13 101.9 -10 73 -14 -18
17:00 N 10 Mainly Sunny 16 101.9 -11 72 -15 -18
16:00 N 9 Light Snow 24 101.8 -10 73 -14 -17
15:00 N 9 Light Snow 24 101.8 -10 73 -14 -17
 
Map of Arctic - Eastern Arctic marine weather areas Baker Lake Airport Chesterfield Inlet Airport Coral Harbour Airport Gjoa Haven Airport Kugaaruk Airport Rankin Inlet Airport Shepherd Bay Airport Whale Cove Airport Arctic Bay Brevoort Island Qikiqtarjuaq Airport Cape Dorset Airport Cape Dyer Cape Hooper Clyde Airport Grise Fiord Airport Hall Beach Airport Igloolik Airport Iqaluit Airport Longstaff Bluff Pangnirtung Airport Pond Inlet Airport Repulse Bay Airport Resolute Airport Resolution Island Rowley Island Airport Taloyoak Airport Wager Bay Akulivik Airport Ivujivik Airport Puvirnituq Airport Kangiqsujuaq Airport Kangirsuk Airport Quaqtaq Airport Tasiujaq Airport Cape Kakkiviak Cape Kiglapait Nain Airport Saglek Cape Mercy Kimmirut Airport Aupaluk Airport Salluit Airport Kangiqsualujjuaq Airport Fort Ross
Legend: buoyBuoy land stationLand Station